Time;durP1;ratioP1;P1;durP2;ratioP2;P2;SDS_P1;SDS_P2;PMS_P1;PMS_P2;Temp;Humidity;BMP_temperature;BMP_pressure;BME280_temperature;BME280_humidity;BME280_pressure;Samples;Min_cycle;Max_cycle;Signal;HPM_P1;HPM_P2
2023/04/21 06:30:25;;;;;;;20.97;12.40;;;5.70;99.90;;;;;;7396965;23;20018;31
2023/04/21 06:33:26;;;;;;;16.60;11.52;;;5.90;99.90;;;;;;6078097;29;20278;-79
2023/04/21 06:36:28;;;;;;;20.30;13.00;;;6.10;99.90;;;;;;6080694;29;20060;-79
2023/04/21 06:39:30;;;;;;;16.13;11.73;;;6.10;99.90;;;;;;6080355;29;20402;-79
2023/04/21 06:42:32;;;;;;;15.70;11.70;;;6.00;99.90;;;;;;6080571;29;20193;-79
2023/04/21 06:45:35;;;;;;;17.92;12.55;;;6.20;99.90;;;;;;6080714;29;20055;-80
2023/04/21 06:48:37;;;;;;;16.65;11.68;;;6.20;99.90;;;;;;6077351;29;20052;-77
2023/04/21 06:51:39;;;;;;;19.48;13.55;;;6.40;99.90;;;;;;6066348;29;20056;-77
2023/04/21 06:54:41;;;;;;;18.42;13.23;;;6.40;99.90;;;;;;6091818;29;20055;-79
2023/04/21 06:57:43;;;;;;;19.90;13.77;;;6.50;99.90;;;;;;6093795;29;20657;-79
2023/04/21 07:00:46;;;;;;;20.70;13.70;;;6.60;99.90;;;;;;6080459;29;20055;-80
2023/04/21 07:03:48;;;;;;;17.50;12.88;;;6.70;99.90;;;;;;6080354;29;20048;-79
2023/04/21 07:06:50;;;;;;;23.35;15.82;;;6.70;99.90;;;;;;6080680;29;20056;-79
2023/04/21 07:09:51;;;;;;;24.67;15.75;;;6.50;99.90;;;;;;6080941;29;20055;-80
2023/04/21 07:12:53;;;;;;;21.10;14.88;;;6.50;99.90;;;;;;6080288;29;20056;-78
2023/04/21 07:15:57;;;;;;;22.45;14.57;;;6.70;99.90;;;;;;6080487;29;20048;-79
2023/04/21 07:19:00;;;;;;;20.15;13.65;;;7.00;99.90;;;;;;6079712;29;20148;-77
2023/04/21 07:22:02;;;;;;;19.23;13.05;;;7.10;99.90;;;;;;6080216;29;20057;-78
2023/04/21 07:25:05;;;;;;;20.40;14.30;;;7.10;99.90;;;;;;6080904;29;20048;-79
2023/04/21 07:28:07;;;;;;;20.00;14.23;;;7.10;99.90;;;;;;6083426;29;20139;-76
2023/04/21 07:31:11;;;;;;;19.83;13.77;;;7.20;99.90;;;;;;6072212;29;20456;-78
2023/04/21 07:34:12;;;;;;;20.30;14.13;;;7.30;99.90;;;;;;6061978;29;20053;-76
2023/04/21 07:37:15;;;;;;;18.23;13.27;;;7.20;99.90;;;;;;6064532;29;20411;-77
2023/04/21 07:40:17;;;;;;;22.83;15.52;;;7.30;99.90;;;;;;6092939;29;20076;-75
2023/04/21 07:43:19;;;;;;;22.10;14.60;;;7.20;99.90;;;;;;6088456;29;20059;-77
2023/04/21 07:46:24;;;;;;;21.58;14.80;;;7.10;99.90;;;;;;6085022;29;20059;-78
2023/04/21 07:49:26;;;;;;;22.85;15.27;;;7.00;99.90;;;;;;6084822;29;20574;-75
2023/04/21 07:52:28;;;;;;;21.25;14.80;;;6.90;99.90;;;;;;6083858;29;20049;-75
2023/04/21 07:55:30;;;;;;;22.08;15.57;;;7.20;99.90;;;;;;6084104;29;20193;-77
2023/04/21 07:58:32;;;;;;;23.73;15.10;;;7.20;99.90;;;;;;6083290;29;20384;-78
2023/04/21 08:01:35;;;;;;;19.63;14.02;;;7.30;99.90;;;;;;6083779;29;20067;-75
2023/04/21 08:04:37;;;;;;;19.73;14.23;;;7.20;99.90;;;;;;6083613;29;20052;-79
2023/04/21 08:07:39;;;;;;;21.05;14.32;;;7.40;99.90;;;;;;6083632;29;20048;-77
2023/04/21 08:10:41;;;;;;;20.88;13.60;;;7.50;99.90;;;;;;6083526;29;20433;-76
2023/04/21 08:13:43;;;;;;;23.35;14.65;;;7.60;99.90;;;;;;6082821;29;20497;-78
2023/04/21 08:16:46;;;;;;;18.80;13.38;;;7.80;99.90;;;;;;6083338;29;20056;-79
2023/04/21 08:19:48;;;;;;;18.42;13.13;;;7.90;99.90;;;;;;6080946;29;20407;-78
2023/04/21 08:22:50;;;;;;;17.83;12.98;;;7.90;99.90;;;;;;6083399;29;20056;-78
2023/04/21 08:25:52;;;;;;;19.20;13.05;;;8.00;99.90;;;;;;6083489;29;20482;-80
2023/04/21 08:28:54;;;;;;;17.15;12.77;;;8.20;99.90;;;;;;6083125;29;20113;-78
2023/04/21 08:31:57;;;;;;;19.50;12.73;;;8.20;99.90;;;;;;6082602;29;20074;-76
2023/04/21 08:34:59;;;;;;;17.25;13.02;;;8.30;99.90;;;;;;6083050;29;20052;-79
2023/04/21 08:38:01;;;;;;;17.83;12.77;;;8.30;99.90;;;;;;6082916;29;20060;-75
2023/04/21 08:41:04;;;;;;;18.40;13.57;;;8.40;99.90;;;;;;6082990;29;20143;-76
2023/04/21 08:44:06;;;;;;;19.55;13.85;;;8.40;99.90;;;;;;6082735;29;20418;-76
2023/04/21 08:47:12;;;;;;;17.98;12.85;;;8.40;99.90;;;;;;6082443;29;20048;-76
2023/04/21 08:50:14;;;;;;;17.27;12.85;;;8.40;99.90;;;;;;6082610;29;20064;-76
2023/04/21 08:53:18;;;;;;;16.90;11.93;;;8.60;99.90;;;;;;6082144;29;20377;-79
2023/04/21 08:56:19;;;;;;;18.88;12.18;;;8.70;99.90;;;;;;6082255;29;20510;-80
2023/04/21 08:59:21;;;;;;;17.05;12.27;;;8.90;99.90;;;;;;6082397;29;20049;-76
2023/04/21 09:02:25;;;;;;;18.65;12.70;;;9.00;99.90;;;;;;6089334;29;20064;-79
2023/04/21 09:05:29;;;;;;;16.45;11.18;;;9.00;99.90;;;;;;6093588;29;20049;-78
2023/04/21 09:08:32;;;;;;;18.30;12.65;;;9.00;99.90;;;;;;6100682;29;20048;-79
2023/04/21 09:11:34;;;;;;;17.15;11.68;;;9.10;99.90;;;;;;6087393;29;20056;-78
2023/04/21 09:14:36;;;;;;;16.90;11.68;;;9.20;99.90;;;;;;6082170;29;20096;-79
2023/04/21 09:17:39;;;;;;;17.27;12.45;;;9.10;99.90;;;;;;6082036;29;20041;-78
2023/04/21 09:20:42;;;;;;;15.32;10.70;;;9.20;99.90;;;;;;6082296;29;20399;-79
2023/04/21 09:23:46;;;;;;;14.27;10.00;;;9.40;99.90;;;;;;6081774;29;20060;-78
2023/04/21 09:26:52;;;;;;;12.48;8.07;;;9.50;99.90;;;;;;6081988;29;20059;-77
2023/04/21 09:29:53;;;;;;;7.63;5.25;;;9.60;99.90;;;;;;6081745;29;20192;-77
2023/04/21 09:32:58;;;;;;;10.07;6.25;;;9.70;99.90;;;;;;6080183;29;20067;-79
2023/04/21 09:36:02;;;;;;;8.20;5.40;;;9.70;99.90;;;;;;6081611;29;20053;-79
2023/04/21 09:39:06;;;;;;;8.57;5.32;;;9.70;99.90;;;;;;6081705;29;20048;-77
2023/04/21 09:42:10;;;;;;;9.70;6.30;;;9.80;99.90;;;;;;6081253;29;20060;-79
2023/04/21 09:45:13;;;;;;;10.98;6.60;;;9.90;99.90;;;;;;6082056;29;20052;-78
2023/04/21 09:48:18;;;;;;;10.27;6.90;;;10.00;99.90;;;;;;6081521;29;20055;-80
2023/04/21 09:51:20;;;;;;;11.27;7.75;;;10.10;99.90;;;;;;6080608;29;20060;-79
2023/04/21 09:54:29;;;;;;;18.65;11.95;;;10.20;99.90;;;;;;6081056;29;20406;-79
2023/04/21 09:57:32;;;;;;;22.25;12.90;;;10.30;99.90;;;;;;6080678;29;20410;-78
2023/04/21 10:00:38;;;;;;;13.43;9.30;;;10.40;99.90;;;;;;6081121;29;20057;-79
2023/04/21 10:03:44;;;;;;;14.73;9.55;;;10.40;99.90;;;;;;6080295;29;20565;-79
2023/04/21 10:06:47;;;;;;;15.10;9.85;;;10.60;99.90;;;;;;6080876;29;20188;-78
2023/04/21 10:09:54;;;;;;;15.93;10.30;;;10.70;99.90;;;;;;6080681;29;20049;-77
2023/04/21 10:12:56;;;;;;;19.58;13.27;;;10.80;99.90;;;;;;6077153;29;20048;-77
2023/04/21 10:16:06;;;;;;;19.42;13.98;;;10.90;99.90;;;;;;6079711;29;20154;-78
2023/04/21 10:22:38;;;;;;;18.52;13.38;;;10.90;99.90;;;;;;6331670;27;20364;-77
2023/04/21 10:25:40;;;;;;;19.05;14.07;;;11.20;99.90;;;;;;6306129;28;20053;-78
2023/04/21 10:28:46;;;;;;;17.23;12.55;;;11.20;99.90;;;;;;6306497;28;20055;-78
2023/04/21 10:31:52;;;;;;;16.85;11.85;;;11.30;99.90;;;;;;6308568;28;20052;-78
2023/04/21 10:34:57;;;;;;;17.05;11.52;;;11.50;99.90;;;;;;6298402;28;20041;-79
2023/04/21 10:38:00;;;;;;;16.10;12.00;;;11.60;99.90;;;;;;6294285;28;20052;-78
2023/04/21 10:41:26;;;;;;;16.20;11.25;;;11.60;99.90;;;;;;6294638;28;20478;-79
2023/04/21 10:44:29;;;;;;;15.52;10.75;;;11.80;99.90;;;;;;6269056;28;20045;-78
2023/04/21 10:47:39;;;;;;;19.00;11.68;;;11.90;99.90;;;;;;6269856;28;20061;-78
2023/04/21 10:50:43;;;;;;;15.55;11.10;;;12.00;99.90;;;;;;6269618;28;20049;-79
2023/04/21 10:53:46;;;;;;;18.55;11.63;;;12.10;99.90;;;;;;6272842;28;20040;-80
2023/04/21 10:56:49;;;;;;;16.08;11.38;;;12.20;99.90;;;;;;6293893;28;20410;-79
2023/04/21 10:59:51;;;;;;;16.63;11.10;;;12.30;99.90;;;;;;6294001;28;20041;-80
2023/04/21 11:02:58;;;;;;;16.70;12.00;;;12.40;99.90;;;;;;6294141;28;20299;-77
2023/04/21 11:06:00;;;;;;;15.40;11.48;;;12.50;99.90;;;;;;6294032;28;20128;-79
2023/04/21 11:09:03;;;;;;;14.57;10.40;;;12.50;99.90;;;;;;6293744;28;20402;-77
2023/04/21 11:12:07;;;;;;;15.30;10.77;;;12.70;99.90;;;;;;6293278;28;20049;-81
2023/04/21 11:15:14;;;;;;;14.00;9.98;;;12.80;99.90;;;;;;6293593;28;20049;-79
2023/04/21 11:18:16;;;;;;;13.02;9.82;;;12.80;99.90;;;;;;6293719;28;20052;-77
2023/04/21 11:21:20;;;;;;;13.80;10.50;;;12.90;99.90;;;;;;6293275;28;20120;-79
2023/04/21 11:24:24;;;;;;;14.10;9.93;;;13.00;99.90;;;;;;6293170;28;20049;-77
2023/04/21 11:27:28;;;;;;;14.38;10.02;;;13.20;99.90;;;;;;6293023;28;20052;-76
2023/04/21 11:30:34;;;;;;;14.13;9.85;;;13.30;99.90;;;;;;6293142;28;20446;-77
2023/04/21 11:33:36;;;;;;;13.65;9.68;;;13.40;99.90;;;;;;6296833;28;20049;-77
2023/04/21 11:36:41;;;;;;;10.70;8.05;;;13.50;99.90;;;;;;6295241;28;20060;-76
2023/04/21 11:39:44;;;;;;;11.90;7.47;;;13.60;99.90;;;;;;6270154;28;20479;-77
2023/04/21 11:42:46;;;;;;;10.70;7.10;;;13.90;99.90;;;;;;6266452;28;20136;-77
2023/04/21 11:45:50;;;;;;;11.38;7.68;;;14.10;99.90;;;;;;6269102;28;20046;-78
2023/04/21 11:49:00;;;;;;;10.35;7.28;;;14.30;99.90;;;;;;6279061;28;20049;-77
2023/04/21 11:52:02;;;;;;;10.02;7.03;;;14.50;99.90;;;;;;6282808;28;20053;-76
2023/04/21 11:55:14;;;;;;;10.60;7.28;;;14.60;99.90;;;;;;6283096;28;20394;-76
2023/04/21 11:58:16;;;;;;;11.10;6.60;;;14.80;99.90;;;;;;6279902;28;20045;-77
2023/04/21 12:01:18;;;;;;;10.80;7.03;;;15.10;99.90;;;;;;6278720;28;20564;-77
2023/04/21 12:04:22;;;;;;;9.23;6.50;;;15.20;99.90;;;;;;6278381;28;20149;-76
2023/04/21 12:07:23;;;;;;;8.75;6.30;;;15.40;99.90;;;;;;6280563;28;20053;-78
2023/04/21 12:10:29;;;;;;;8.00;5.90;;;15.60;99.90;;;;;;6279700;28;20052;-76
2023/04/21 12:13:31;;;;;;;10.07;7.13;;;15.80;99.90;;;;;;6276973;28;20433;-77
2023/04/21 12:16:33;;;;;;;9.70;6.20;;;15.90;99.90;;;;;;6289905;28;20060;-78
2023/04/21 12:19:38;;;;;;;8.05;5.50;;;15.90;99.70;;;;;;6300228;28;20072;-77
2023/04/21 12:22:40;;;;;;;6.80;4.68;;;16.10;99.90;;;;;;6295848;28;20053;-74
2023/04/21 12:25:44;;;;;;;7.85;5.28;;;16.40;99.70;;;;;;6278646;28;20045;-77
2023/04/21 12:28:46;;;;;;;6.53;4.90;;;16.50;98.20;;;;;;6283076;28;20049;-77
2023/04/21 12:31:50;;;;;;;9.07;5.57;;;16.70;99.20;;;;;;6288248;28;20041;-79
2023/04/21 12:34:52;;;;;;;7.40;5.20;;;16.90;98.70;;;;;;6289497;28;20041;-79
2023/04/21 12:37:54;;;;;;;7.63;5.07;;;17.00;98.30;;;;;;6298176;28;20112;-77
2023/04/21 12:40:57;;;;;;;7.38;5.20;;;17.20;97.50;;;;;;6281129;28;20045;-78
2023/04/21 12:43:59;;;;;;;6.90;4.72;;;17.30;97.70;;;;;;6277285;28;20056;-82
2023/04/21 12:47:01;;;;;;;6.07;4.63;;;17.50;97.40;;;;;;6284246;28;20383;-81
2023/04/21 12:50:03;;;;;;;7.07;4.55;;;17.70;97.00;;;;;;6273949;28;20041;-79
2023/04/21 12:53:05;;;;;;;7.10;4.80;;;17.80;96.60;;;;;;6274572;28;20123;-78
2023/04/21 12:56:09;;;;;;;7.13;3.40;;;17.90;96.20;;;;;;6274996;28;20601;-79
2023/04/21 12:59:11;;;;;;;6.00;4.25;;;18.10;96.90;;;;;;6273794;28;20045;-77
2023/04/21 13:02:13;;;;;;;5.80;4.00;;;18.20;95.40;;;;;;6274654;28;20114;-77
2023/04/21 13:05:15;;;;;;;5.25;3.53;;;18.40;95.10;;;;;;6274888;28;20044;-77
2023/04/21 13:08:17;;;;;;;6.25;3.50;;;18.60;95.40;;;;;;6273813;28;20129;-77
2023/04/21 13:11:20;;;;;;;6.53;3.45;;;18.80;94.00;;;;;;6273382;28;20055;-76
2023/04/21 13:14:22;;;;;;;4.78;3.35;;;18.70;92.60;;;;;;6273947;28;20052;-76
2023/04/21 13:17:24;;;;;;;4.57;2.90;;;18.90;92.90;;;;;;6274361;28;20060;-79
2023/04/21 13:20:26;;;;;;;4.40;2.40;;;19.00;92.70;;;;;;6273117;28;20049;-77
2023/04/21 13:23:28;;;;;;;4.15;2.55;;;19.10;91.70;;;;;;6273448;28;20041;-77
2023/04/21 13:26:34;;;;;;;4.80;2.80;;;19.20;91.40;;;;;;6274033;28;20049;-78
2023/04/21 13:29:36;;;;;;;4.45;2.58;;;19.40;90.80;;;;;;6272678;28;20063;-78
2023/04/21 13:32:38;;;;;;;4.57;2.47;;;19.50;91.00;;;;;;6274237;28;20045;-77
2023/04/21 13:35:40;;;;;;;4.00;2.50;;;19.40;90.40;;;;;;6273558;28;20049;-78
2023/04/21 13:38:42;;;;;;;4.05;2.35;;;19.60;90.30;;;;;;6269071;28;20763;-78
2023/04/21 13:41:45;;;;;;;3.23;2.23;;;19.90;90.10;;;;;;6269906;28;20077;-77
2023/04/21 13:44:47;;;;;;;3.70;2.22;;;20.00;87.00;;;;;;6268897;28;20053;-78
2023/04/21 13:47:50;;;;;;;3.60;2.40;;;20.40;87.20;;;;;;6270344;28;20048;-75
2023/04/21 13:50:52;;;;;;;4.93;2.47;;;20.50;85.70;;;;;;6255837;28;20049;-79
2023/04/21 13:53:54;;;;;;;3.70;2.28;;;20.60;86.20;;;;;;6268635;28;20550;-76
2023/04/21 13:56:57;;;;;;;4.60;2.38;;;20.90;87.00;;;;;;6270230;28;20526;-78
2023/04/21 13:59:59;;;;;;;5.43;2.42;;;21.10;85.00;;;;;;6270030;28;20056;-78
2023/04/21 14:03:01;;;;;;;3.70;2.10;;;21.50;83.70;;;;;;6269107;28;20579;-78
2023/04/21 14:06:03;;;;;;;4.10;2.20;;;21.80;83.10;;;;;;6269203;28;20061;-76
2023/04/21 14:09:06;;;;;;;5.03;2.25;;;22.10;81.10;;;;;;6268922;28;20052;-76
2023/04/21 14:12:10;;;;;;;3.55;2.47;;;22.10;80.40;;;;;;6270086;28;20066;-74
2023/04/21 14:15:13;;;;;;;3.53;2.10;;;22.20;76.70;;;;;;6269294;28;20414;-75
2023/04/21 14:18:15;;;;;;;3.53;2.20;;;22.30;78.10;;;;;;6269868;28;20045;-75
2023/04/21 14:21:17;;;;;;;3.22;1.90;;;22.60;77.20;;;;;;6269191;28;20076;-74
2023/04/21 14:24:20;;;;;;;3.30;1.98;;;22.90;75.40;;;;;;6268966;28;20075;-76
2023/04/21 14:27:23;;;;;;;;;;;23.10;75.10;;;;;;6269735;28;20045;-74
2023/04/21 14:30:25;;;;;;;3.00;1.83;;;23.60;74.90;;;;;;6269904;28;20373;-75
2023/04/21 14:33:27;;;;;;;3.22;2.00;;;23.80;71.00;;;;;;6268658;28;20065;-75
2023/04/21 14:36:29;;;;;;;3.88;2.00;;;23.30;70.60;;;;;;6268653;28;20049;-75
2023/04/21 14:39:33;;;;;;;4.30;1.80;;;23.40;70.30;;;;;;6275995;28;20060;-76
2023/04/21 14:42:36;;;;;;;3.45;1.75;;;22.70;70.30;;;;;;6268956;28;20513;-75
2023/04/21 14:45:39;;;;;;;3.88;1.95;;;22.50;72.90;;;;;;6284574;28;20053;-75
2023/04/21 14:48:42;;;;;;;;;;;22.50;71.00;;;;;;6294009;28;20029;-74
2023/04/21 14:51:45;;;;;;;3.50;1.70;;;22.40;71.10;;;;;;6291842;28;19932;-76
2023/04/21 14:54:47;;;;;;;3.00;1.70;;;23.00;69.80;;;;;;6292112;28;20096;-74
2023/04/21 14:57:51;;;;;;;2.83;1.45;;;23.60;71.20;;;;;;6289761;28;20067;-76
2023/04/21 15:00:53;;;;;;;3.35;1.42;;;24.80;69.80;;;;;;6272074;28;20102;-75
2023/04/21 15:03:56;;;;;;;2.90;1.53;;;25.50;64.00;;;;;;6272336;28;20052;-76
2023/04/21 15:06:57;;;;;;;3.25;1.30;;;26.70;64.40;;;;;;6274379;28;20045;-75
2023/04/21 15:09:59;;;;;;;2.13;1.13;;;29.40;57.30;;;;;;6278070;28;20048;-75
2023/04/21 15:13:03;;;;;;;2.92;1.30;;;33.60;46.30;;;;;;6278876;28;20422;-76
2023/04/21 15:16:06;;;;;;;2.65;1.10;;;34.70;43.40;;;;;;6280535;28;20049;-75
2023/04/21 15:19:08;;;;;;;2.60;1.30;;;36.80;41.80;;;;;;6273430;28;20041;-76
2023/04/21 15:22:12;;;;;;;2.67;1.30;;;36.30;39.40;;;;;;6273504;28;20056;-74
2023/04/21 15:25:14;;;;;;;3.00;1.20;;;33.60;41.50;;;;;;6272663;28;20052;-75
2023/04/21 15:28:17;;;;;;;2.03;1.08;;;34.30;42.00;;;;;;6272728;28;20455;-75
2023/04/21 15:31:19;;;;;;;3.95;1.20;;;33.60;41.40;;;;;;6273901;28;20060;-76
2023/04/21 15:34:21;;;;;;;2.38;1.00;;;35.40;40.00;;;;;;6272150;28;20056;-75
2023/04/21 15:37:23;;;;;;;2.25;1.00;;;37.70;39.00;;;;;;6272634;28;20048;-76
2023/04/21 15:40:24;;;;;;;2.60;1.15;;;38.20;37.70;;;;;;6273018;28;20525;-76
2023/04/21 15:43:28;;;;;;;3.63;1.30;;;37.60;37.30;;;;;;6266994;28;20044;-76
2023/04/21 15:46:30;;;;;;;3.33;1.10;;;38.00;35.70;;;;;;6273170;28;20049;-76
2023/04/21 15:49:32;;;;;;;2.08;1.10;;;39.00;36.10;;;;;;6270726;28;20045;-75
2023/04/21 15:52:36;;;;;;;3.00;1.20;;;37.50;35.50;;;;;;6271893;28;20750;-74
2023/04/21 15:55:38;;;;;;;1.83;1.00;;;35.60;36.30;;;;;;6273335;28;20471;-77
2023/04/21 15:58:41;;;;;;;2.42;1.20;;;35.10;38.60;;;;;;6272911;28;20045;-76
2023/04/21 16:01:43;;;;;;;4.07;1.50;;;33.50;38.00;;;;;;6273168;28;20045;-76
2023/04/21 16:04:45;;;;;;;3.33;1.20;;;32.80;39.10;;;;;;6272859;28;20658;-74
2023/04/21 16:07:47;;;;;;;2.63;1.33;;;31.00;41.40;;;;;;6272345;28;20056;-74
2023/04/21 16:10:49;;;;;;;2.78;1.35;;;28.70;44.10;;;;;;6272381;28;20057;-74
2023/04/21 16:13:53;;;;;;;2.58;1.30;;;27.50;45.30;;;;;;6271823;28;20056;-74
2023/04/21 16:16:54;;;;;;;3.10;1.52;;;26.60;47.10;;;;;;6272774;28;20049;-74
2023/04/21 16:19:56;;;;;;;3.47;1.40;;;26.80;47.80;;;;;;6272389;28;20060;-74
2023/04/21 16:22:58;;;;;;;3.13;1.35;;;28.60;46.80;;;;;;6271462;28;20053;-78
2023/04/21 16:26:03;;;;;;;4.47;1.30;;;29.20;44.60;;;;;;6272079;28;20053;-77
2023/04/21 16:29:06;;;;;;;2.28;1.13;;;29.80;45.10;;;;;;6271641;28;20484;-75
2023/04/21 16:32:08;;;;;;;2.88;1.33;;;29.60;43.60;;;;;;6260834;28;20128;-75
2023/04/21 16:35:10;;;;;;;2.20;1.10;;;29.10;44.40;;;;;;6271425;28;20053;-77
2023/04/21 16:38:12;;;;;;;2.17;1.10;;;28.40;44.70;;;;;;6271536;28;20052;-73
2023/04/21 16:41:15;;;;;;;3.03;1.20;;;26.90;47.40;;;;;;6271484;28;20052;-75
2023/04/21 16:44:18;;;;;;;3.78;1.30;;;25.80;49.00;;;;;;6269104;28;20064;-76
2023/04/21 16:47:20;;;;;;;3.40;1.45;;;25.10;50.00;;;;;;6270856;28;20045;-75
2023/04/21 16:50:23;;;;;;;3.30;1.20;;;24.30;51.90;;;;;;6270846;28;20049;-75
2023/04/21 16:53:25;;;;;;;2.20;1.10;;;23.50;52.60;;;;;;6270160;28;20059;-77
2023/04/21 16:56:27;;;;;;;4.07;1.65;;;23.20;54.30;;;;;;6272941;28;20060;-77
2023/04/21 16:59:30;;;;;;;4.07;1.40;;;23.00;54.90;;;;;;6289495;28;20492;-79
2023/04/21 17:02:32;;;;;;;;;;;22.50;56.20;;;;;;6290005;28;20045;-78
2023/04/21 17:05:34;;;;;;;2.93;1.60;;;22.10;57.00;;;;;;6277856;28;19924;-77
2023/04/21 17:08:36;;;;;;;3.65;1.67;;;22.20;57.80;;;;;;6268775;28;20045;-74
2023/04/21 17:11:37;;;;;;;3.22;1.75;;;22.20;58.40;;;;;;6268687;28;20056;-77
2023/04/21 17:14:41;;;;;;;3.65;1.60;;;22.00;58.00;;;;;;6270409;28;20076;-76
2023/04/21 17:17:43;;;;;;;;;;;22.00;58.90;;;;;;6270888;28;20045;-77
2023/04/21 17:20:45;;;;;;;3.35;1.88;;;22.00;59.50;;;;;;6269686;28;19928;-78
2023/04/21 17:23:48;;;;;;;2.83;1.70;;;21.90;59.40;;;;;;6264952;28;20482;-74
2023/04/21 17:26:50;;;;;;;;;;;21.80;60.30;;;;;;6263602;28;20060;-78
2023/04/21 17:29:53;;;;;;;4.82;1.90;;;21.50;60.10;;;;;;6264494;28;19924;-74
2023/04/21 17:32:55;;;;;;;4.95;1.90;;;21.40;61.20;;;;;;6259834;28;20056;-76
2023/04/21 17:35:57;;;;;;;3.13;1.63;;;21.20;61.80;;;;;;6257227;28;20128;-73
2023/04/21 17:38:59;;;;;;;3.47;1.70;;;21.00;62.10;;;;;;6275280;28;20045;-76
2023/04/21 17:42:01;;;;;;;3.30;1.70;;;20.90;63.10;;;;;;6258428;28;20064;-75
2023/04/21 17:45:07;;;;;;;3.83;1.27;;;20.60;62.90;;;;;;6265018;28;20048;-76
2023/04/21 17:48:09;;;;;;;2.42;1.15;;;20.20;57.00;;;;;;6269911;28;20040;-75
2023/04/21 17:51:12;;;;;;;3.33;1.33;;;20.10;57.80;;;;;;6263657;28;20056;-75
2023/04/21 17:54:14;;;;;;;2.75;1.48;;;20.10;60.10;;;;;;6257861;28;20056;-75
2023/04/21 17:57:16;;;;;;;4.28;1.65;;;20.00;60.30;;;;;;6269155;28;20052;-74
2023/04/21 18:00:20;;;;;;;5.00;2.28;;;20.00;61.70;;;;;;6269515;28;20053;-74
2023/04/21 18:03:22;;;;;;;3.03;1.77;;;20.10;62.80;;;;;;6265877;28;20086;-77
2023/04/21 18:06:25;;;;;;;3.47;1.92;;;20.10;63.10;;;;;;6266642;28;20565;-75
2023/04/21 18:09:27;;;;;;;3.90;1.63;;;19.80;61.90;;;;;;6254275;28;20076;-74
2023/04/21 18:12:29;;;;;;;3.20;1.70;;;19.50;63.50;;;;;;6245090;28;20342;-76
2023/04/21 18:15:33;;;;;;;3.65;1.52;;;19.30;64.40;;;;;;6246217;28;20057;-75
2023/04/21 18:18:34;;;;;;;2.67;1.40;;;19.00;63.20;;;;;;6268593;28;20489;-77
2023/04/21 18:21:36;;;;;;;3.78;1.60;;;18.90;61.50;;;;;;6266970;28;20064;-77
2023/04/21 18:24:38;;;;;;;3.30;1.30;;;18.70;60.30;;;;;;6260306;28;20056;-76
2023/04/21 18:27:40;;;;;;;2.92;1.25;;;18.70;60.00;;;;;;6262977;28;20045;-76
2023/04/21 18:30:43;;;;;;;3.50;1.42;;;18.70;59.80;;;;;;6267199;28;20037;-75
2023/04/21 18:33:45;;;;;;;3.00;1.52;;;18.50;59.80;;;;;;6267460;28;20053;-75
2023/04/21 18:36:49;;;;;;;3.20;1.30;;;18.50;59.80;;;;;;6268687;28;20052;-77
2023/04/21 18:39:51;;;;;;;3.60;1.50;;;18.40;59.50;;;;;;6266981;28;20132;-76
2023/04/21 18:42:52;;;;;;;4.75;1.40;;;18.30;59.90;;;;;;6256523;28;20548;-76
2023/04/21 18:45:56;;;;;;;3.80;1.40;;;18.30;60.10;;;;;;6260123;28;20049;-74
2023/04/21 18:48:57;;;;;;;3.88;1.60;;;18.20;60.20;;;;;;6275296;28;20045;-76
2023/04/21 18:52:00;;;;;;;3.25;1.50;;;18.20;60.80;;;;;;6272339;28;20128;-74
2023/04/21 18:55:02;;;;;;;3.78;1.60;;;18.30;60.60;;;;;;6272853;28;20041;-77
2023/04/21 18:58:04;;;;;;;3.40;1.50;;;18.30;60.50;;;;;;6273055;28;20055;-76
2023/04/21 19:01:07;;;;;;;2.92;1.35;;;18.30;60.40;;;;;;6255313;28;21875;-76
2023/04/21 19:04:09;;;;;;;2.97;1.35;;;18.20;60.30;;;;;;6272906;28;20115;-77
2023/04/21 19:07:14;;;;;;;3.13;1.55;;;18.20;60.60;;;;;;6270898;28;20486;-75
2023/04/21 19:10:16;;;;;;;3.97;2.15;;;18.20;62.60;;;;;;6269028;28;20055;-75
2023/04/21 19:13:18;;;;;;;4.00;1.83;;;18.00;63.00;;;;;;6272522;28;20406;-76
2023/04/21 19:16:21;;;;;;;6.00;1.85;;;18.00;62.80;;;;;;6267175;28;20402;-73
2023/04/21 19:19:25;;;;;;;3.50;1.90;;;17.80;64.40;;;;;;6272478;28;20430;-77
2023/04/21 19:22:29;;;;;;;7.30;2.05;;;17.70;65.20;;;;;;6273729;28;20449;-77
2023/04/21 19:25:32;;;;;;;3.42;2.03;;;17.80;67.00;;;;;;6271727;28;20065;-77
2023/04/21 19:28:34;;;;;;;4.05;2.45;;;17.80;68.70;;;;;;6271146;28;20398;-76
2023/04/21 19:31:37;;;;;;;6.30;3.45;;;17.70;70.80;;;;;;6272416;28;20048;-76
2023/04/21 19:34:39;;;;;;;6.25;3.03;;;17.70;72.60;;;;;;6273698;28;20053;-75
2023/04/21 19:37:41;;;;;;;4.35;2.60;;;17.70;72.10;;;;;;6272869;28;20060;-77
2023/04/21 19:40:43;;;;;;;4.45;2.90;;;17.60;72.10;;;;;;6269486;28;20056;-74
2023/04/21 19:43:45;;;;;;;5.20;3.00;;;17.50;72.90;;;;;;6271456;28;20053;-74
2023/04/21 19:46:48;;;;;;;5.78;3.00;;;17.50;73.30;;;;;;6273177;28;20053;-77
2023/04/21 19:49:50;;;;;;;4.82;2.65;;;17.40;74.50;;;;;;6272185;28;20084;-76
2023/04/21 19:52:52;;;;;;;5.03;2.40;;;17.40;75.60;;;;;;6272347;28;20048;-78
2023/04/21 19:55:54;;;;;;;5.47;2.10;;;17.30;76.20;;;;;;6272977;28;20053;-76
2023/04/21 19:58:56;;;;;;;6.28;2.50;;;17.10;77.00;;;;;;6270720;28;20053;-75
2023/04/21 20:02:00;;;;;;;6.60;2.60;;;16.80;78.90;;;;;;6270488;28;20065;-76
2023/04/21 20:05:02;;;;;;;4.97;2.60;;;16.80;80.20;;;;;;6272100;28;20098;-77
2023/04/21 20:08:03;;;;;;;5.50;2.30;;;16.70;80.10;;;;;;6270957;28;20047;-77
2023/04/21 20:11:05;;;;;;;4.57;2.95;;;16.40;78.70;;;;;;6253656;28;20045;-81
2023/04/21 20:14:07;;;;;;;4.47;2.45;;;16.40;79.80;;;;;;6270378;28;20045;-79
2023/04/21 20:17:10;;;;;;;6.45;2.70;;;16.50;78.40;;;;;;6269898;28;20049;-79
2023/04/21 20:20:12;;;;;;;4.53;2.63;;;16.50;78.50;;;;;;6270816;28;20063;-80
2023/04/21 20:23:14;;;;;;;4.07;2.30;;;16.40;79.10;;;;;;6271417;28;20059;-76
2023/04/21 20:26:16;;;;;;;6.72;3.25;;;16.40;80.60;;;;;;6269322;28;20048;-77
2023/04/21 20:29:18;;;;;;;5.53;2.80;;;16.40;79.20;;;;;;6260662;28;20128;-77
2023/04/21 20:32:21;;;;;;;4.53;2.50;;;16.40;75.70;;;;;;6260759;28;20045;-79
2023/04/21 20:35:23;;;;;;;4.22;1.95;;;16.30;71.90;;;;;;6271750;28;20060;-77
2023/04/21 20:38:25;;;;;;;4.05;1.67;;;16.40;71.70;;;;;;6271081;28;20045;-76
2023/04/21 20:41:28;;;;;;;6.80;2.63;;;16.40;68.70;;;;;;6269126;28;20053;-79
2023/04/21 20:44:30;;;;;;;4.83;2.77;;;16.30;74.80;;;;;;6244779;28;20061;-77
2023/04/21 20:47:36;;;;;;;4.90;2.80;;;16.30;75.80;;;;;;6253373;28;20045;-78
2023/04/21 20:50:37;;;;;;;5.93;3.00;;;16.30;76.80;;;;;;6271146;28;20045;-76
2023/04/21 20:53:39;;;;;;;7.57;3.22;;;16.30;80.40;;;;;;6270383;28;20120;-78
2023/04/21 20:56:41;;;;;;;8.10;3.40;;;16.30;81.20;;;;;;6270588;28;20119;-79
2023/04/21 20:59:43;;;;;;;6.13;2.85;;;16.30;83.30;;;;;;6271105;28;20057;-77
2023/04/21 21:02:46;;;;;;;4.55;2.60;;;16.20;84.10;;;;;;6271554;28;20398;-76
2023/04/21 21:05:48;;;;;;;6.20;2.80;;;16.20;84.60;;;;;;6273120;28;20045;-77
2023/04/21 21:08:50;;;;;;;4.65;2.90;;;16.20;85.30;;;;;;6270386;28;20620;-78
2023/04/21 21:11:52;;;;;;;5.90;3.08;;;16.20;86.00;;;;;;6273080;28;20045;-77
2023/04/21 21:14:54;;;;;;;5.97;3.28;;;16.20;86.50;;;;;;6273758;28;20490;-77
2023/04/21 21:17:57;;;;;;;6.97;3.70;;;16.10;87.20;;;;;;6273891;28;20049;-78
2023/04/21 21:20:59;;;;;;;5.35;3.25;;;16.00;88.80;;;;;;6273105;28;20055;-79
2023/04/21 21:24:01;;;;;;;5.78;3.10;;;16.00;89.90;;;;;;6272153;28;20060;-78
2023/04/21 21:27:03;;;;;;;5.80;3.00;;;15.90;90.30;;;;;;6274075;28;20413;-78
2023/04/21 21:30:08;;;;;;;6.18;3.10;;;15.80;90.50;;;;;;6273977;28;20115;-79
2023/04/21 21:33:11;;;;;;;7.25;3.17;;;15.70;90.80;;;;;;6274348;28;20045;-78
2023/04/21 21:36:13;;;;;;;7.43;2.90;;;15.80;91.20;;;;;;6294348;28;20102;-78
2023/04/21 21:39:15;;;;;;;6.47;3.30;;;15.70;91.80;;;;;;6292284;28;20100;-77
2023/04/21 21:42:18;;;;;;;4.85;2.83;;;15.60;92.20;;;;;;6294545;28;20048;-76
2023/04/21 21:45:20;;;;;;;4.90;3.00;;;15.70;92.70;;;;;;6283397;28;20044;-76
2023/04/21 21:48:23;;;;;;;6.05;3.25;;;15.60;92.70;;;;;;6273482;28;20044;-78
2023/04/21 21:51:27;;;;;;;6.78;2.95;;;15.50;93.10;;;;;;6273237;28;20052;-81
2023/04/21 21:54:29;;;;;;;6.95;3.85;;;15.20;93.70;;;;;;6269709;28;20045;-79
2023/04/21 21:57:31;;;;;;;5.40;3.03;;;15.10;93.60;;;;;;6268368;28;20049;-77
